Station APAM2 - 8575512 - Annapolis, MD Image indicating link to RSS feed of recent meteorological observations for station APAM2


Conditions at APAM2 as of
(2:00 am EDT)
0600 GMT on 08/31/2026:
     

Click on the graph icon in the table below to see a time series plot of the last five days of that observation.

5-day plot - Wind Direction Wind Direction (WDIR):WNW ( 300 deg true )
5-day plot - Wind Speed Wind Speed (WSPD): 2.9 kts
5-day plot - Wind Gust Wind Gust (GST): 4.1 kts
5-day plot - Atmospheric Pressure Atmospheric Pressure (PRES):30.07 in
5-day plot - Pressure Tendency Pressure Tendency (PTDY):-0.01 in ( Falling )
5-day plot - Air Temperature Air Temperature (ATMP): 78.1 °F
5-day plot - Water Temperature Water Temperature (WTMP): 81.9 °F
5-day plot -  Wind Speed, Wind Gust and Atmospheric Pressure Combined plot of Wind Speed, Gust, and Air Pressure
NOS Water Level Observation Network Water Level
Previous observations
TIME
(EDT)
5-day plot - Wind Direction
WDIR
 
5-day plot - Wind Speed
WSPD
kts
5-day plot - Wind Gust
GST
kts
5-day plot - Wave Height
WVHT
ft
5-day plot - Dominant Wave Period
DPD
sec
5-day plot - Average Wave Period
APD
sec
5-day plot - Mean Wave Direction
MWD
 
5-day plot - Atmospheric Pressure
PRES
in
5-day plot - Pressure Tendency
PTDY
in
5-day plot - Air Temperature
ATMP
°F
5-day plot - Water Temperature
WTMP
°F
5-day plot - Dew Point
DEWP
°F
5-day plot - Salinity
SAL
psu
5-day plot - Visibility
VIS
nmi
5-day plot - Tide (above MLLW)
TIDE
ft
2026-08-31 01:54 amWNW 1.9 2.9----30.07- 77.9 81.9----
2026-08-31 01:48 amWNW 1.9 2.9----30.07- 77.7 81.9----
2026-08-31 01:42 am W 2.9 2.9----30.07- 77.9 81.9----
2026-08-31 01:36 amWNW 1.9 1.9----30.07- 78.4 81.9----
2026-08-31 01:30 am W 1.0 1.0----30.06- 78.3 81.9----
2026-08-31 01:24 am- 0.0 1.0----30.06- 78.3 81.9----
2026-08-31 01:18 am- 0.0 1.9----30.07-- 81.9----
2026-08-31 01:12 am W 1.0 1.0----30.06-- 81.9----
2026-08-31 01:06 am W 1.0 1.9----30.06-- 81.9----
2026-08-31 01:00 am- 0.0 1.0----30.06-0.02 78.6 81.9----
2026-08-31 12:54 am W 1.0 1.9----30.06- 78.6 81.9----
2026-08-31 12:48 am W 1.0 1.9----30.06- 79.0 81.9----
2026-08-31 12:42 am- 0.0 1.0----30.07- 78.8 81.9----
2026-08-31 12:36 am- 0.0 1.9----30.07- 78.8 81.9----
2026-08-31 12:30 am W 1.9 1.9----30.07- 79.0 81.9----
2026-08-31 12:24 am W 1.0 1.9----30.07- 79.0 81.9----
2026-08-31 12:18 am SW 1.0 1.9----30.07- 79.2 81.9----
2026-08-31 12:12 amSSW 1.0 4.1----30.07- 79.5 81.9----
2026-08-31 12:06 am S 2.9 4.1----30.07- 79.5 81.9----
2026-08-31 12:00 am S 2.9 4.1----30.07+0.00 79.5 81.7----
2026-08-30 11:54 pm S 2.9 5.1----30.07- 79.7 81.7----
2026-08-30 11:48 pm S 2.9 2.9----30.07- 79.9 81.7----
2026-08-30 11:42 pmSSE 1.9 2.9----30.07- 79.9 81.7----
2026-08-30 11:36 pmSSE 1.0 1.9----30.07- 80.2 81.7----
2026-08-30 11:30 pm- 0.0 1.9----30.07- 80.2 81.5----
2026-08-30 11:24 pmSSE 1.0 1.9----30.07- 80.4 81.5----
2026-08-30 11:18 pmSSE 1.0 1.9----30.07- 80.4 81.5----
2026-08-30 11:12 pm- 0.0 1.9----30.07- 80.6 81.5----
2026-08-30 11:06 pm- 0.0 1.9----30.08- 80.6 81.7----
2026-08-30 11:00 pm SW 1.0 2.9----30.08+0.01 80.8 81.7----
2026-08-30 10:54 pmWSW 1.0 1.9----30.08- 80.8 81.7----
2026-08-30 10:48 pm SW 1.0 2.9----30.08- 81.0 81.7----
2026-08-30 10:42 pm- 0.0 2.9----30.08- 81.1 81.5----
2026-08-30 10:36 pmSSW 1.9 5.1----30.08- 81.5 81.5----
2026-08-30 10:30 pmSSW 1.9 1.9----30.08- 81.5 81.5----
2026-08-30 10:24 pm- 0.0 2.9----30.08- 81.3 81.5----
2026-08-30 10:18 pmSSW 1.0 2.9----30.08-- 81.5----
2026-08-30 10:12 pm- 0.0 1.9----30.08-- 81.5----
2026-08-30 10:06 pm S 1.9 2.9----30.08-- 81.5----
2026-08-30 10:00 pm S 2.9 6.0----30.08+0.01 81.9 81.5----
2026-08-30 09:54 pmSSE 1.0 7.0----30.09- 82.2 81.5----
2026-08-30 09:48 pmSSE 1.0 6.0----30.09- 82.4 81.5----
2026-08-30 09:42 pmSSW 2.9 8.0----30.09- 82.8 81.5----
2026-08-30 09:36 pmWSW 1.9 4.1----30.09- 83.1 81.5----
2026-08-30 09:30 pm SW 1.9 8.0----30.09- 83.3 81.5----
2026-08-30 09:24 pm S 1.9 5.1----30.08- 83.3 81.5----
2026-08-30 09:18 pmSSE 5.1 8.9----30.08- 83.1 81.5----
2026-08-30 09:12 pmSSE 7.0 13.0----30.08- 83.1 81.5----
2026-08-30 09:06 pmSSE 6.0 9.9----30.08- 83.1 81.5----
2026-08-30 09:00 pmSSE 6.0 12.0----30.08+0.01 83.3 81.5----
2026-08-30 08:54 pmSSE 5.1 8.9----30.08- 83.1 81.5----
2026-08-30 08:48 pmSSE 5.1 9.9----30.08-- 81.5----
2026-08-30 08:42 pmSSE 4.1 11.1----30.08-- 81.3----
2026-08-30 08:36 pmSSE 5.1 11.1----30.08-- 81.3----
2026-08-30 08:30 pmSSE 6.0 13.0----30.08- 83.1 81.3----
2026-08-30 08:24 pmSSE 5.1 12.0----30.07- 83.1 81.3----
2026-08-30 08:18 pmSSE 5.1 8.9----30.07-- 81.3----
2026-08-30 08:12 pmSSE 6.0 8.9----30.06-- 81.3----
2026-08-30 08:06 pmSSE 5.1 9.9----30.07-- 81.3----
2026-08-30 08:00 pmSSE 5.1 11.1----30.06+0.00 83.3 81.3----
2026-08-30 07:54 pmSSE 5.1 8.0----30.06- 83.3 81.3----
2026-08-30 07:48 pmSSE 5.1 11.1----30.06-- 81.3----
2026-08-30 07:42 pmSSE 4.1 11.1----30.06-- 81.3----
2026-08-30 07:36 pmSSE 6.0 9.9----30.06-- 81.3----
2026-08-30 07:30 pmSSE 6.0 9.9----30.06- 83.3 81.5----
2026-08-30 07:24 pmSSE 5.1 11.1----30.06- 83.3 81.3----
2026-08-30 07:00 pm S 5.1 11.1----30.07+0.00 84.4 81.3----
2026-08-30 06:54 pm S 5.1 8.9----30.07- 84.6 81.5----
2026-08-30 06:48 pmSSE 6.0 11.1----30.07- 84.6 81.5----
2026-08-30 06:42 pmSSE 6.0 9.9----30.06- 84.4 81.3----
2026-08-30 06:36 pmSSE 5.1 8.9----30.06- 84.6 81.5----
2026-08-30 06:30 pm SE 5.1 8.0----30.06- 84.4 81.5----
2026-08-30 06:24 pmSSE 2.9 8.0----30.06- 84.7 81.5----
2026-08-30 06:18 pmSSE 4.1 7.0----30.06-- 81.5----
2026-08-30 06:12 pmSSE 5.1 11.1----30.06-- 81.5----
2026-08-30 06:06 pmSSE 6.0 9.9----30.06-- 81.5----
2026-08-30 06:00 pm SE 5.1 8.9----30.06-0.03 84.4 81.5----
2026-08-30 05:54 pm SE 5.1 11.1----30.06- 85.3 81.5----
2026-08-30 05:48 pmSSE 5.1 8.9----30.06- 85.5 81.5----
2026-08-30 05:42 pmSSE 8.0 11.1----30.06- 85.3 81.5----
2026-08-30 05:36 pmSSE 5.1 9.9----30.06- 85.5 81.7----
2026-08-30 05:30 pm SE 4.1 8.0----30.06- 84.9 81.7----
2026-08-30 05:24 pm SE 5.1 8.0----30.06- 85.1 81.7----
2026-08-30 05:18 pm SE 5.1 7.0----30.06-- 81.7----
2026-08-30 05:12 pmSSE 4.1 9.9----30.06-- 81.7----
2026-08-30 05:06 pm SE 6.0 9.9----30.06-- 81.9----
2026-08-30 05:00 pm SE 6.0 11.1----30.06-0.06 84.6 81.7----
2026-08-30 04:54 pm SE 6.0 9.9----30.06- 84.9 81.3----
2026-08-30 04:48 pmESE 6.0 9.9----30.06- 84.0 81.3----
2026-08-30 04:42 pmESE 7.0 12.0----30.06- 84.0 81.5----
2026-08-30 04:36 pmESE 8.0 12.0----30.06- 84.4 81.3----
2026-08-30 04:30 pmESE 7.0 12.0----30.06- 84.6 81.3----
2026-08-30 04:24 pmESE 7.0 9.9----30.06- 85.1 81.3----
2026-08-30 04:18 pmSSE 5.1 11.1----30.06-- 81.3----
2026-08-30 04:12 pmSSE 6.0 11.1----30.07-- 81.1----
2026-08-30 04:06 pmSSE 5.1 9.9----30.07-- 81.1----
2026-08-30 04:00 pmSSE 7.0 11.1----30.07-0.07 88.3 81.0----
2026-08-30 03:54 pm S 2.9 9.9----30.06- 88.5 81.0----
2026-08-30 03:48 pm S 5.1 12.0----30.07- 89.1 81.0----
2026-08-30 03:42 pmSSW 4.1 8.9----30.07- 88.7 81.0----
2026-08-30 03:36 pmSSE 4.1 11.1----30.08- 88.2 81.0----
2026-08-30 03:30 pm S 7.0 11.1----30.08- 89.4 81.0----
2026-08-30 03:24 pm S 5.1 12.0----30.08- 88.3 81.0----
2026-08-30 03:18 pm S 8.0 12.0----30.08-- 81.3----
2026-08-30 03:12 pm S 4.1 11.1----30.08-- 81.7----
2026-08-30 03:06 pm S 7.0 12.0----30.09-- 82.0----
2026-08-30 03:00 pmSSE 7.0 12.0----30.09-0.07 88.5 82.2----
2026-08-30 02:54 pm S 5.1 9.9----30.09- 89.2 82.2----
2026-08-30 02:48 pm S 5.1 9.9----30.09- 89.2 82.2----
2026-08-30 02:42 pmSSE 5.1 11.1----30.10- 88.0 82.0----
2026-08-30 02:36 pm S 5.1 12.0----30.10- 88.5 82.0----
2026-08-30 02:30 pm S 6.0 15.0----30.10- 88.3 82.0----
2026-08-30 02:24 pm S 7.0 12.0----30.11- 88.9 82.2----
2026-08-30 02:18 pmSSW 1.9 8.0----30.11-- 82.2----
2026-08-30 02:12 pmSSW 8.9 14.0----30.11-- 82.2----
2026-08-30 02:06 pm S 8.0 15.0----30.12-- 82.2----
2026-08-30 02:00 pm S 7.0 12.0----30.12-0.04 87.6 82.2----
2026-08-30 01:54 pm S 5.1 12.0----30.12- 88.0 82.2----
2026-08-30 01:48 pmSSW 4.1 12.0----30.12- 87.3 82.2----
2026-08-30 01:42 pm S 8.0 12.0----30.13- 87.3 82.0----
2026-08-30 01:36 pm S 8.0 15.0----30.13- 86.9 82.0----
2026-08-30 01:30 pmSSE 5.1 12.0----30.13- 87.3 81.9----
2026-08-30 01:24 pm S 2.9 9.9----30.13- 88.2 81.7----
2026-08-30 01:18 pm S 9.9 14.0----30.14- 85.8 81.7----
2026-08-30 01:12 pm S 7.0 12.0----30.14- 86.5 81.5----
2026-08-30 01:06 pm S 7.0 15.0----30.14- 86.2 81.5----
2026-08-30 01:00 pmSSE 4.1 14.0----30.14-0.02 86.5 81.3----
2026-08-30 12:54 pmSSW 1.9 8.0----30.14- 86.7 81.3----
2026-08-30 12:48 pmSSW 2.9 12.0----30.14- 86.4 81.3----
2026-08-30 12:42 pmSSW 8.0 12.0----30.14- 84.7 81.3----
2026-08-30 12:36 pmSSW 6.0 12.0----30.15- 85.6 81.3----
2026-08-30 12:30 pm S 7.0 9.9----30.15- 85.5 81.3----
2026-08-30 12:24 pm S 7.0 12.0----30.16- 85.3 81.3----
2026-08-30 12:18 pmSSW 2.9 8.0----30.16- 85.5 81.3----
2026-08-30 12:12 pmSSE 1.9 6.0----30.16- 85.8 81.3----
2026-08-30 12:06 pmSSW 5.1 12.0----30.16- 84.2 81.3----
2026-08-30 12:00 pm S 7.0 13.0----30.16-0.03 84.2 81.3----
2026-08-30 11:54 am S 5.1 9.9----30.16- 84.7 81.1----
2026-08-30 11:48 amSSE 2.9 11.1----30.16-- 81.3----
2026-08-30 11:42 am S 9.9 13.0----30.16-- 81.1----
2026-08-30 11:36 am S 8.0 13.0----30.16-- 81.1----
2026-08-30 11:30 am S 6.0 9.9----30.16- 83.3 81.1----
2026-08-30 11:24 am S 7.0 12.0----30.16- 82.9 81.1----
2026-08-30 11:18 am S 6.0 11.1----30.15-- 81.1----
2026-08-30 11:12 am S 8.9 12.0----30.16-- 81.1----
2026-08-30 11:06 am S 6.0 12.0----30.16-- 81.1----
2026-08-30 11:00 am S 7.0 11.1----30.16-0.03 82.0 81.1----
2026-08-30 10:54 am S 6.0 8.9----30.16- 82.9 81.1----
2026-08-30 10:48 am SE 6.0 8.9----30.16- 82.4 81.1----
2026-08-30 10:42 am S 4.1 8.9----30.16- 82.8 81.1----
2026-08-30 10:36 am S 5.1 9.9----30.16- 82.6 81.0----
2026-08-30 10:30 am S 8.0 13.0----30.16- 81.5 81.0----
2026-08-30 10:24 am SE 5.1 8.9----30.16- 81.3 81.0----
2026-08-30 10:18 am S 5.1 12.0----30.16-- 81.0----
2026-08-30 10:12 am S 8.0 12.0----30.16-- 81.0----
2026-08-30 10:06 am S 6.0 11.1----30.16-- 81.0----
2026-08-30 10:00 am S 5.1 12.0----30.16-0.03 80.4 81.0----
2026-08-30 09:54 am S 7.0 12.0----30.17- 80.1 81.0----
2026-08-30 09:48 am S 7.0 12.0----30.17- 79.9 81.0----
2026-08-30 09:42 am S 4.1 9.9----30.17- 80.4 80.8----
2026-08-30 09:36 am S 6.0 9.9----30.18- 80.1 80.8----
2026-08-30 09:30 amSSE 6.0 9.9----30.18- 79.3 81.0----
2026-08-30 09:24 am S 6.0 11.1----30.18- 79.0 81.0----
2026-08-30 09:18 am S 5.1 8.9----30.19-- 81.0----
2026-08-30 09:12 am S 1.9 7.0----30.19-- 81.0----
2026-08-30 09:06 am S 5.1 9.9----30.19-- 80.8----
2026-08-30 09:00 am S 6.0 11.1----30.19+0.00 77.7 80.8----
2026-08-30 08:54 am S 7.0 11.1----30.19- 77.4 80.8----
2026-08-30 08:48 amSSW 5.1 8.0----30.19- 77.5 80.8----
2026-08-30 08:42 am S 2.9 8.9----30.19- 77.9 80.8----
2026-08-30 08:36 amSSW 5.1 8.9----30.19- 77.7 80.8----
2026-08-30 08:30 am S 4.1 7.0----30.19- 78.1 80.8----
2026-08-30 08:24 am S 4.1 6.0----30.19- 77.5 80.8----
2026-08-30 08:18 am S 2.9 6.0----30.20-- 80.8----
2026-08-30 08:12 amSSE 2.9 6.0----30.19-- 80.8----
2026-08-30 08:06 am S 4.1 7.0----30.19-- 80.8----
2026-08-30 08:00 am-------30.19+0.01 76.3 80.8----
2026-08-30 07:54 am-------30.19- 76.5 80.8----
2026-08-30 07:48 am S 1.9 5.1----30.19-------
2026-08-30 07:42 amSSW 2.9 6.0----30.19-------
2026-08-30 07:36 am S 2.9 6.0----30.19-------
2026-08-30 07:30 am S 4.1 8.0----30.19-- 80.8----
2026-08-30 07:24 am S 4.1 6.0----30.19-- 80.8----
2026-08-30 07:18 am S 2.9 6.0----30.19-- 80.8----
2026-08-30 07:12 am S 2.9 6.0----30.19-- 80.8----
2026-08-30 07:06 am S 4.1 7.0----30.19-- 80.8----
2026-08-30 07:00 am S 2.9 6.0----30.19+0.00 73.9 80.8----
2026-08-30 06:54 am S 2.9 4.1----30.19- 73.8 80.8----
2026-08-30 06:48 am SW 1.9 2.9----30.19- 73.8 80.8----
2026-08-30 06:42 am- 0.0 5.1----30.19- 73.8 80.8----
2026-08-30 06:36 am S 2.9 4.1----30.19- 73.9 81.0----
2026-08-30 06:30 am S 2.9 5.1----30.19- 73.9 81.0----
2026-08-30 06:24 am S 2.9 5.1----30.19- 73.9 81.0----
2026-08-30 06:18 am S 4.1 5.1----30.19-- 81.0----
2026-08-30 06:12 am S 2.9 5.1----30.19-- 81.0----
2026-08-30 06:06 am- 0.0 2.9----30.19-- 81.0----
2026-08-30 06:00 am S 1.0 2.9----30.19+0.00 73.9 81.0----
2026-08-30 05:54 amSSW 1.9 2.9----30.19- 73.8 81.0----
2026-08-30 05:48 am- 0.0 1.9----30.19- 73.6 81.0----
2026-08-30 05:42 amWSW 1.0 1.9----30.19- 73.6 81.0----
2026-08-30 05:36 am W 1.0 1.9----30.19- 73.6 81.0----
2026-08-30 05:30 amWSW 1.9 5.1----30.19- 73.9 80.8----
2026-08-30 05:24 amSSW 2.9 5.1----30.18- 74.3 81.0----
2026-08-30 05:18 am S 2.9 5.1----30.18-- 81.0----
2026-08-30 05:12 am S 2.9 4.1----30.18-- 81.0----
2026-08-30 05:06 am S 1.9 4.1----30.18-- 81.0----
2026-08-30 05:00 amSSW 1.9 2.9----30.18-0.02 74.1 81.0----
2026-08-30 04:54 am- 0.0 1.9----30.18- 74.1 81.0----
2026-08-30 04:48 am- 0.0 1.9----30.18- 74.3 81.0----
2026-08-30 04:42 am- 0.0 1.9----30.18- 74.1 81.0----
2026-08-30 04:36 am SW 1.9 1.9----30.19- 74.1 81.0----
2026-08-30 04:30 am SW 1.9 2.9----30.19- 74.3 81.0----
2026-08-30 04:24 am- 0.0 4.1----30.19- 74.3 81.0----
2026-08-30 04:18 am SW 1.0 2.9----30.19-- 81.0----
2026-08-30 04:12 amSSW 1.9 4.1----30.18-- 81.0----
2026-08-30 04:06 am S 2.9 4.1----30.19-- 81.0----
2026-08-30 04:00 amSSW 2.9 5.1----30.19-0.01 74.5 81.0----
2026-08-30 03:54 am S 1.9 4.1----30.18- 74.7 81.0----
2026-08-30 03:48 amSSW 1.9 5.1----30.18- 74.5 81.0----
2026-08-30 03:42 amSSW 2.9 5.1----30.18- 74.7 81.0----
2026-08-30 03:36 am S 1.0 2.9----30.18- 74.7 81.0----
2026-08-30 03:30 am S 4.1 6.0----30.19- 74.7 81.0----
2026-08-30 03:24 am S 1.9 4.1----30.19- 74.5 81.0----
2026-08-30 03:18 am S 1.9 4.1----30.19-- 81.0----
2026-08-30 03:12 amSSW 1.9 4.1----30.19-- 81.0----
2026-08-30 03:06 am SW 1.0 2.9----30.19-- 81.1----
2026-08-30 03:00 amSSW 1.9 4.1----30.19+0.00 74.5 81.1----
2026-08-30 02:54 amSSW 1.9 4.1----30.19- 74.8 81.1----
2026-08-30 02:48 amSSW 1.9 2.9----30.19- 75.2 81.1----
2026-08-30 02:42 am S 2.9 5.1----30.19- 75.4 81.1----
2026-08-30 02:36 amSSW 1.9 4.1----30.19- 75.4 81.1----
2026-08-30 02:30 amSSW 1.0 4.1----30.19- 75.6 81.1----
2026-08-30 02:24 am S 1.9 4.1----30.20- 75.2 81.1----
2026-08-30 02:18 amSSW 1.0 2.9----30.20-- 81.1----
2026-08-30 02:12 am- 0.0 1.9----30.20-- 81.1----
2026-08-30 02:06 amWNW 1.0 1.9----30.20-- 81.1----
2026-08-30 02:00 am- 0.0 1.0----30.20+0.01 74.5 81.1----
2026-08-30 01:54 am- 0.0 1.0----30.20- 74.3 81.1----